AirNav   Phillips 66 Aviation Fuel
 
 1288 users online  

L83 Thibodaux Municipal Airport
Thibodaux, Louisiana, USA

GOING TO THIBODAUX?


FAA INFORMATION EFFECTIVE 29 MARCH 2018

Location

FAA Identifier: L83
Lat/Long: 29-44-52.0510N / 090-49-58.4360W
29-44.867517N / 090-49.973933W
29.7477919 / -90.8328989
(estimated)
Elevation: 9 ft. / 2.7 m (surveyed)
Variation: 02E (1995)
From city: 3 miles S of THIBODAUX, LA
Time zone: UTC -5 (UTC -6 during Standard Time)
Zip code: 70395

Airport Operations

Airport use: Open to the public
Activation date: 09/1972
Control tower: no
ARTCC: HOUSTON CENTER
FSS: DE RIDDER FLIGHT SERVICE STATION
NOTAMs facility: DRI (NOTAM-D service available)
Attendance: 0800-1700
FOR ARPT ATTENDANT AFT HRS CALL 985-209-4697.
Wind indicator: lighted
Segmented circle: no
Lights: MIRL RY 08/26, REIL RYS 08 & 26 PRESET LOW INTST; TO INCR INTST ACTVT - CTAF.
Beacon: white-green (lighted land airport)
Operates sunset to sunrise.

Airport Communications

CTAF/UNICOM: 122.8
NEW ORLEANS APPROACH: 118.9
NEW ORLEANS DEPARTURE: 118.9
WX AWOS-3PT at HUM (14 nm SE): 120.25 (985-876-4055)

Nearby radio navigation aids

VOR radial/distance  VOR name  Freq  Var
TBDr356/5.0TIBBY VOR/DME112.0002E
RQRr210/24.0RESERVE VOR/DME110.8002E

Airport Services

Fuel available: 100LL
Parking: tiedowns
Airframe service: MINOR
Powerplant service: MINOR
Bottled oxygen: NONE
Bulk oxygen: NONE

Runway Information

Runway 8/26

Dimensions: 2999 x 75 ft. / 914 x 23 m
Surface: asphalt, in good condition
Weight bearing capacity: 
Single wheel: 6.0
Runway edge lights: medium intensity
RUNWAY 8  RUNWAY 26
Latitude: 29-44.839333N29-44.895050N
Longitude: 090-50.256283W090-49.692967W
Elevation: 7.0 ft.9.0 ft.
Traffic pattern: leftleft
Runway heading: 082 magnetic, 084 true262 magnetic, 264 true
Displaced threshold: no90 ft.
Markings: nonprecision, in good conditionnonprecision, in good condition
Runway end identifier lights: yesyes
Touchdown point: yes, no lightsyes, no lights
Obstructions: 72 ft. trees, 425 ft. from runway, 3:1 slope to clear45 ft. trees, 708 ft. from runway, 53 ft. left of centerline, 11:1 slope to clear
APCH RATIO 13:1 TO DSPLCD THLD.

Airport Ownership and Management from official FAA records

Ownership: Publicly-owned
Owner: CITY OF THIBODAUX
PO BOX 5418
THIBODAUX, LA 70302-5418
Phone 985-446-7218
Manager: ROLAND SOIGNET
PO BOX 5418
THIBODAUX, LA 70302-5418
Phone 985-446-7208

Airport Operational Statistics

Aircraft based on the field: 17
Single engine airplanes: 11
Multi engine airplanes: 2
Helicopters: 4
    
Aircraft operations: avg 125/week *
54% local general aviation
46% transient general aviation
* for 12-month period ending 17 August 2017

Additional Remarks

RY 08/26 AGRICULTURE WASHDOWN PAD 500 FT NORTH OF RY AT MIDFIELD.
FOR CD CTC MSY APCH AT 504-471-4350.

Instrument Procedures

NOTE: All procedures below are presented as PDF files. If you need a reader for these files, you should download the free Adobe Reader.

NOT FOR NAVIGATION. Please procure official charts for flight.
FAA instrument procedures published for use from 29 March 2018 at 0901Z to 26 April 2018 at 0900Z.

 
IAPs - Instrument Approach Procedures
VOR OR GPS-A   download (147KB)
NOTE: Special Take-Off Minimums/Departure Procedures apply   download (114KB)

Other nearby airports with instrument procedures:

KHUM - Houma-Terrebonne Airport (14 nm SE)
KAPS - Port of South Louisiana Executive Regional Airport (24 nm NE)
KREG - Louisiana Regional Airport (26 nm N)
KPTN - Harry P Williams Memorial Airport (26 nm W)
KMSY - Louis Armstrong New Orleans International Airport (33 nm NE)
 
Loc | Ops | Rwys | IFR | FBO | Links
Com | Nav | Svcs | Stats | Notes

AirNav Hotels Sweepstakes
 
Area around L83 (Thibodaux Municipal Airport)
 
Road maps at: MapQuest Bing Google
 
Aerial photo
WARNING: Photo may not be current or correct
Aerial photo of L83 (Thibodaux Municipal Airport)
Do you have a better or more recent aerial photo of Thibodaux Municipal Airport that you would like to share? If so, please send us your photo.

 
Sectional chart

 
Airport distance calculator
Flying to Thibodaux Municipal Airport? Find the distance to fly.

From to L83

Sunrise and sunset
Times for 19-Apr-2018
 Local
(UTC-5)
 Zulu
(UTC)
Morning civil twilight06:0911:09
Sunrise06:3311:33
Sunset19:3200:32
Evening civil twilight19:5600:56

Current date and time
Zulu (UTC)  19-Apr-2018 21:54:29
Local (UTC-5)  19-Apr-2018 16:54:29
 
METAR
KHUM 
14nm SE 
192050Z 33008KT 7SM SKC 26/11 A3013
KAPS 
24nm NE 
192135Z AUTO 01006KT 10SM CLR 27/08 A3013 RMK AO2 T02680075
KPTN 
25nm W 
192056Z AUTO 35010KT 10SM CLR 24/09 A3015 RMK AO2 SLP212 6//// T02390094 58015 PNO $
KREG 
26nm N 
192135Z AUTO 33006KT 10SM CLR 24/07 A3013 RMK AO2 T02420073 TSNO
TAF
KHUM 
14nm SE 
191720Z 1918/2018 02008KT P6SM FEW250 FM201700 06007KT P6SM FEW250
NOTAMs
Click for the latest NOTAMs
NOTAMs are issued by the DoD/FAA and will open in a separate window not controlled by AirNav.

 

 
 

FBO, Fuel Providers, and Aircraft Ground Support

  
 Business Name 
 
 Contact 
 
 Services / Description 
 
Fuel Prices
 
Comments
  
Golden Ranch Aviation 985-447-6124
no information available

If you are affiliated with Golden Ranch Aviation and would like to show here your services, contact info, web link, logo, and more, click here
100LL
FS $5.05 
 Updated 09-Apr-2018
 
   1 read write
FS=Full service
Update Fuel Prices
 

Would you like to see your business listed on this page?

 If your business provides an interesting product or service to pilots, flight crews, aircraft, or users of the Thibodaux Municipal Airport, you should consider listing it here.  To start the listing process, click on the button below
 
Add a business
 

Other Pages about Thibodaux Municipal Airport

Update a link
 
Copyright © AirNav, LLC. All rights reserved. Privacy Policy  Contact